Time;durP1;ratioP1;P1;durP2;ratioP2;P2;SDS_P1;SDS_P2;PMS_P1;PMS_P2;Temp;Humidity;BMP_temperature;BMP_pressure;BME280_temperature;BME280_humidity;BME280_pressure;Samples;Min_cycle;Max_cycle;Signal;HPM_P1;HPM_P2
2024/04/19 00:00:54;;;;;;;;;11.25;7.25;;;;;;;;6491019;39;8904;-62
2024/04/19 00:07:00;;;;;;;;;18.50;16.25;;;;;;;;6491578;46;8911;-62
2024/04/19 00:13:18;;;;;;;;;10.25;10.25;;;;;;;;6491735;39;8924;-62
2024/04/19 00:19:22;;;;;;;;;15.00;12.50;;;;;;;;6491460;39;8941;-62
2024/04/19 00:25:23;;;;;;;;;11.25;10.00;;;;;;;;6491303;46;8912;-62
2024/04/19 00:31:26;;;;;;;;;13.50;13.00;;;;;;;;6491304;39;8891;-61
2024/04/19 00:37:27;;;;;;;;;8.75;5.50;;;;;;;;6490467;46;8928;-62
2024/04/19 00:43:28;;;;;;;;;13.00;12.75;;;;;;;;6491859;46;8923;-60
2024/04/19 00:49:30;;;;;;;;;13.25;13.25;;;;;;;;6491398;39;8931;-61
2024/04/19 00:55:35;;;;;;;;;14.50;11.50;;;;;;;;6492343;31;9082;-61
2024/04/19 01:01:39;;;;;;;;;13.25;12.00;;;;;;;;6490951;39;9556;-62
2024/04/19 01:07:41;;;;;;;;;13.00;10.50;;;;;;;;6491139;39;9628;-62
2024/04/19 01:13:48;;;;;;;;;12.25;11.25;;;;;;;;6491243;39;9541;-63
2024/04/19 01:19:50;;;;;;;;;11.25;10.00;;;;;;;;6491097;39;8915;-63
2024/04/19 01:26:10;;;;;;;;;15.00;10.75;;;;;;;;6491205;39;8876;-61
2024/04/19 01:32:10;;;;;;;;;14.75;13.25;;;;;;;;6489978;39;8963;-62
2024/04/19 01:38:14;;;;;;;;;13.50;11.00;;;;;;;;6490851;39;8886;-61
2024/04/19 01:44:18;;;;;;;;;11.50;11.50;;;;;;;;6490444;46;8888;-64
2024/04/19 01:50:23;;;;;;;;;10.75;10.75;;;;;;;;6490795;39;8949;-61
2024/04/19 01:56:26;;;;;;;;;15.25;14.00;;;;;;;;6491143;39;9044;-63
2024/04/19 02:02:31;;;;;;;;;14.00;14.00;;;;;;;;6491195;39;9785;-61
2024/04/19 02:08:34;;;;;;;;;15.00;15.00;;;;;;;;6491296;39;8996;-63
2024/04/19 02:14:36;;;;;;;;;16.25;16.25;;;;;;;;6490654;39;8976;-60
2024/04/19 02:20:40;;;;;;;;;21.50;16.25;;;;;;;;6490480;39;8869;-63
2024/04/19 02:26:41;;;;;;;;;9.50;9.25;;;;;;;;6490704;39;8878;-62
2024/04/19 02:32:45;;;;;;;;;17.75;14.75;;;;;;;;6489121;47;8939;-62
2024/04/19 02:38:51;;;;;;;;;18.00;14.75;;;;;;;;6490632;39;8842;-61
2024/04/19 02:44:55;;;;;;;;;17.00;16.50;;;;;;;;6489574;39;8988;-62
2024/04/19 02:50:57;;;;;;;;;17.50;14.75;;;;;;;;6489948;39;8897;-62
2024/04/19 02:57:00;;;;;;;;;19.25;15.00;;;;;;;;6490540;39;8989;-61
2024/04/19 03:03:12;;;;;;;;;20.00;17.00;;;;;;;;6489886;39;9010;-62
2024/04/19 03:09:17;;;;;;;;;20.25;18.25;;;;;;;;6489689;47;8983;-61
2024/04/19 03:15:24;;;;;;;;;18.25;17.00;;;;;;;;6489615;47;8909;-61
2024/04/19 03:21:27;;;;;;;;;4.00;0.00;;;;;;;;6489732;39;9596;-61
2024/04/19 03:27:29;;;;;;;;;17.00;15.00;;;;;;;;6488628;31;8909;-63
2024/04/19 03:33:34;;;;;;;;;19.00;17.50;;;;;;;;6490765;39;8932;-61
2024/04/19 03:39:43;;;;;;;;;18.75;18.00;;;;;;;;6499541;36;131998;-60
2024/04/19 03:45:46;;;;;;;;;24.00;22.25;;;;;;;;6491425;46;8928;-63
2024/04/19 03:51:49;;;;;;;;;21.50;18.25;;;;;;;;6492194;31;8894;-61
2024/04/19 03:57:52;;;;;;;;;25.00;21.75;;;;;;;;6491778;39;8977;-63
2024/04/19 04:03:59;;;;;;;;;25.25;22.00;;;;;;;;6471280;39;9064;-61
2024/04/19 04:10:06;;;;;;;;;20.50;17.75;;;;;;;;6492904;39;8987;-61
2024/04/19 04:16:09;;;;;;;;;25.25;21.50;;;;;;;;6196123;36;10000623;-63
2024/04/19 04:22:11;;;;;;;;;22.00;18.50;;;;;;;;6492843;39;13253;-62
2024/04/19 04:28:13;;;;;;;;;20.75;20.25;;;;;;;;6493727;31;9000;-61
2024/04/19 04:34:16;;;;;;;;;20.50;20.00;;;;;;;;6492162;31;8956;-63
2024/04/19 04:40:21;;;;;;;;;25.25;23.00;;;;;;;;6492549;46;8901;-63
2024/04/19 04:46:23;;;;;;;;;16.25;16.25;;;;;;;;6493068;39;9028;-62
2024/04/19 04:52:27;;;;;;;;;24.50;23.25;;;;;;;;6491797;46;9007;-61
2024/04/19 04:58:29;;;;;;;;;24.50;23.00;;;;;;;;6493055;46;8812;-61
2024/04/19 05:04:32;;;;;;;;;30.75;28.00;;;;;;;;6492067;46;8944;-61
2024/04/19 05:10:33;;;;;;;;;27.00;24.75;;;;;;;;6492834;39;9007;-61
2024/04/19 05:16:36;;;;;;;;;26.00;23.50;;;;;;;;6493243;39;9060;-61
2024/04/19 05:22:38;;;;;;;;;23.50;20.50;;;;;;;;6493039;31;9589;-64
2024/04/19 05:28:47;;;;;;;;;25.25;23.00;;;;;;;;6492499;39;8813;-63
2024/04/19 05:34:52;;;;;;;;;19.75;19.75;;;;;;;;6479619;39;9554;-63
2024/04/19 05:40:56;;;;;;;;;21.50;19.50;;;;;;;;6490275;31;9031;-64
2024/04/19 05:47:02;;;;;;;;;21.50;18.50;;;;;;;;6492349;39;8900;-63
2024/04/19 05:53:04;;;;;;;;;22.00;19.50;;;;;;;;6492722;31;9578;-62
2024/04/19 05:59:06;;;;;;;;;27.00;20.75;;;;;;;;6492369;46;8888;-64
2024/04/19 06:05:12;;;;;;;;;19.75;16.00;;;;;;;;6492486;31;9622;-62
2024/04/19 06:11:14;;;;;;;;;20.75;20.75;;;;;;;;6490345;31;9035;-62
2024/04/19 06:17:17;;;;;;;;;21.50;19.00;;;;;;;;6493323;39;9512;-62
2024/04/19 06:23:21;;;;;;;;;32.00;31.67;;;;;;;;6488941;46;9022;-63
2024/04/19 06:29:29;;;;;;;;;19.00;18.00;;;;;;;;6490251;39;9032;-62
2024/04/19 06:35:52;;;;;;;;;17.25;17.25;;;;;;;;6490397;47;8912;-64
2024/04/19 06:41:57;;;;;;;;;19.25;19.25;;;;;;;;6490216;47;8925;-62
2024/04/19 06:48:01;;;;;;;;;13.75;13.50;;;;;;;;6490923;39;9083;-62
2024/04/19 06:54:04;;;;;;;;;23.25;20.50;;;;;;;;6489852;47;8992;-62
2024/04/19 07:00:06;;;;;;;;;69.25;55.75;;;;;;;;6490249;39;8964;-65
2024/04/19 07:06:14;;;;;;;;;21.75;16.25;;;;;;;;6488940;46;8995;-63
2024/04/19 07:12:16;;;;;;;;;28.75;24.25;;;;;;;;6492044;46;8936;-62
2024/04/19 07:18:21;;;;;;;;;61.50;50.50;;;;;;;;6493514;46;8942;-63
2024/04/19 07:24:25;;;;;;;;;34.00;27.33;;;;;;;;6493137;39;8932;-62
2024/04/19 07:30:27;;;;;;;;;53.25;41.00;;;;;;;;6493806;39;8972;-64
2024/04/19 07:36:30;;;;;;;;;28.00;23.00;;;;;;;;6492615;46;8921;-63
2024/04/19 07:42:32;;;;;;;;;55.50;47.00;;;;;;;;6491923;46;8884;-65
2024/04/19 07:48:35;;;;;;;;;53.25;43.75;;;;;;;;6491801;46;8900;-64
2024/04/19 07:54:36;;;;;;;;;19.33;17.67;;;;;;;;6490075;46;8976;-62
2024/04/19 08:00:47;;;;;;;;;29.00;27.00;;;;;;;;6492281;31;8865;-62
2024/04/19 08:06:54;;;;;;;;;33.00;31.00;;;;;;;;6492025;46;8932;-64
2024/04/19 08:12:57;;;;;;;;;28.33;26.67;;;;;;;;6492400;39;9044;-62
2024/04/19 08:19:04;;;;;;;;;63.75;51.25;;;;;;;;6490918;39;8910;-63
2024/04/19 08:25:10;;;;;;;;;64.00;51.25;;;;;;;;6488728;31;8895;-63
2024/04/19 08:31:14;;;;;;;;;37.75;34.75;;;;;;;;6492127;39;8916;-63
2024/04/19 08:37:16;;;;;;;;;30.50;30.50;;;;;;;;6490982;46;8964;-64
2024/04/19 08:43:19;;;;;;;;;42.33;36.67;;;;;;;;6491872;46;8960;-63
2024/04/19 08:49:24;;;;;;;;;42.50;35.25;;;;;;;;6491739;39;8948;-63
2024/04/19 08:55:28;;;;;;;;;45.67;40.00;;;;;;;;6490018;31;9073;-63
2024/04/19 09:01:36;;;;;;;;;62.50;48.00;;;;;;;;6492400;39;9577;-63
2024/04/19 09:07:39;;;;;;;;;19.00;18.00;;;;;;;;6489791;46;9115;-63
2024/04/19 09:13:46;;;;;;;;;55.75;46.25;;;;;;;;6490252;39;9023;-64
2024/04/19 09:19:49;;;;;;;;;30.00;27.33;;;;;;;;6488885;46;8960;-63
2024/04/19 09:25:54;;;;;;;;;25.67;24.00;;;;;;;;6476884;39;8893;-64
2024/04/19 09:31:58;;;;;;;;;37.00;35.00;;;;;;;;6489770;46;8917;-63
2024/04/19 09:38:09;;;;;;;;;26.00;22.00;;;;;;;;6489924;39;9043;-65
2024/04/19 09:44:15;;;;;;;;;21.33;18.00;;;;;;;;6491351;46;9001;-63
2024/04/19 09:50:19;;;;;;;;;21.00;20.67;;;;;;;;6491029;46;8910;-63
2024/04/19 09:56:40;;;;;;;;;13.00;13.00;;;;;;;;6489494;39;9044;-64
2024/04/19 10:02:47;;;;;;;;;19.00;16.67;;;;;;;;6491043;39;8952;-63
2024/04/19 10:08:50;;;;;;;;;35.67;28.33;;;;;;;;6490261;39;8875;-63
2024/04/19 10:14:55;;;;;;;;;18.67;16.00;;;;;;;;6490356;39;9067;-62
2024/04/19 10:20:59;;;;;;;;;13.00;12.67;;;;;;;;6490112;39;9031;-64
2024/04/19 10:27:03;;;;;;;;;24.33;22.33;;;;;;;;6490630;39;8863;-64
2024/04/19 10:33:05;;;;;;;;;15.00;15.00;;;;;;;;6489161;47;8933;-65
2024/04/19 10:39:07;;;;;;;;;23.00;20.67;;;;;;;;6486283;46;8920;-63
2024/04/19 10:45:14;;;;;;;;;16.00;15.00;;;;;;;;6489901;46;8978;-63
2024/04/19 10:51:20;;;;;;;;;24.00;21.00;;;;;;;;6491797;39;9539;-64
2024/04/19 10:57:23;;;;;;;;;22.33;21.00;;;;;;;;6492501;31;9024;-64
2024/04/19 11:03:28;;;;;;;;;20.00;20.00;;;;;;;;6489378;46;8945;-63
2024/04/19 11:09:30;;;;;;;;;18.00;15.00;;;;;;;;6491231;46;8905;-63
2024/04/19 11:15:32;;;;;;;;;12.00;12.00;;;;;;;;6490671;31;8932;-63
2024/04/19 11:21:35;;;;;;;;;13.00;13.00;;;;;;;;6488073;46;9076;-64
2024/04/19 11:27:37;;;;;;;;;13.00;12.00;;;;;;;;6489704;39;8921;-63
2024/04/19 11:33:40;;;;;;;;;28.33;25.67;;;;;;;;6487354;39;8950;-64
2024/04/19 11:39:47;;;;;;;;;19.33;19.33;;;;;;;;6490518;46;8905;-63
2024/04/19 11:45:48;;;;;;;;;18.33;18.33;;;;;;;;6491925;39;8892;-64
2024/04/19 11:51:50;;;;;;;;;12.67;11.67;;;;;;;;6491232;39;8994;-63
2024/04/19 11:57:52;;;;;;;;;13.00;12.67;;;;;;;;6492387;39;8929;-63
2024/04/19 12:03:57;;;;;;;;;15.33;14.33;;;;;;;;6491912;39;9672;-62
2024/04/19 12:10:03;;;;;;;;;12.67;12.67;;;;;;;;6491793;39;8899;-62
2024/04/19 12:16:06;;;;;;;;;11.33;10.67;;;;;;;;6491241;39;9056;-62
2024/04/19 12:22:15;;;;;;;;;8.33;7.67;;;;;;;;6490986;39;9053;-62
2024/04/19 12:28:23;;;;;;;;;28.67;23.00;;;;;;;;6491188;46;8875;-64
2024/04/19 12:34:26;;;;;;;;;14.33;13.33;;;;;;;;6489572;46;8928;-65
2024/04/19 12:40:30;;;;;;;;;11.67;11.00;;;;;;;;6489914;31;10121;-63
2024/04/19 12:46:38;;;;;;;;;14.00;14.00;;;;;;;;6486917;39;8910;-64
2024/04/19 12:52:45;;;;;;;;;44.67;37.33;;;;;;;;6489153;46;8909;-64
2024/04/19 12:58:47;;;;;;;;;49.00;38.67;;;;;;;;6490062;39;9030;-64
2024/04/19 13:04:49;;;;;;;;;16.33;16.33;;;;;;;;6489646;46;9008;-62
2024/04/19 13:10:55;;;;;;;;;22.67;22.67;;;;;;;;6491248;31;9559;-62
2024/04/19 13:16:57;;;;;;;;;13.00;11.00;;;;;;;;6490403;46;8975;-62
2024/04/19 13:23:01;;;;;;;;;19.33;16.33;;;;;;;;6490584;46;8905;-63
2024/04/19 13:29:07;;;;;;;;;31.67;31.33;;;;;;;;6489985;39;8971;-63
2024/04/19 13:35:11;;;;;;;;;9.67;7.33;;;;;;;;6490488;39;8919;-63
2024/04/19 13:41:15;;;;;;;;;12.33;11.00;;;;;;;;6490454;31;9047;-63
2024/04/19 13:47:19;;;;;;;;;36.33;31.00;;;;;;;;6491155;39;8957;-63
2024/04/19 13:53:23;;;;;;;;;12.00;12.00;;;;;;;;6489902;39;9540;-63
2024/04/19 13:59:30;;;;;;;;;23.67;23.67;;;;;;;;6491535;39;8950;-64
2024/04/19 14:05:33;;;;;;;;;10.00;10.00;;;;;;;;6491235;39;9609;-64
2024/04/19 14:11:36;;;;;;;;;18.33;17.33;;;;;;;;6491037;39;8920;-65
2024/04/19 14:17:40;;;;;;;;;26.33;17.33;;;;;;;;6489901;39;9065;-64
2024/04/19 14:23:47;;;;;;;;;18.67;17.00;;;;;;;;6490623;39;8908;-64
2024/04/19 14:29:49;;;;;;;;;13.67;13.67;;;;;;;;6490361;39;9019;-64
2024/04/19 14:35:52;;;;;;;;;12.00;11.33;;;;;;;;6490127;39;9164;-64
2024/04/19 14:41:54;;;;;;;;;12.50;11.75;;;;;;;;6080607;31;10000597;-64
2024/04/19 14:47:56;;;;;;;;;28.33;25.00;;;;;;;;6492166;31;9091;-63
2024/04/19 14:53:57;;;;;;;;;15.33;15.33;;;;;;;;6310692;39;10000616;-65
2024/04/19 14:59:59;;;;;;;;;11.67;11.67;;;;;;;;6490634;39;8905;-63
2024/04/19 15:06:11;;;;;;;;;11.67;11.67;;;;;;;;6490661;39;8948;-64
2024/04/19 15:12:14;;;;;;;;;13.00;11.00;;;;;;;;6489698;31;8934;-65
2024/04/19 15:18:18;;;;;;;;;15.67;11.67;;;;;;;;6490159;39;8967;-64
2024/04/19 15:24:20;;;;;;;;;13.67;12.33;;;;;;;;6489356;47;9004;-63
2024/04/19 15:30:23;;;;;;;;;20.33;16.00;;;;;;;;6491047;46;9044;-63
2024/04/19 15:36:32;;;;;;;;;11.67;9.67;;;;;;;;6492061;39;8889;-63
2024/04/19 15:42:37;;;;;;;;;14.00;12.00;;;;;;;;6491446;46;9033;-64
2024/04/19 15:48:43;;;;;;;;;16.00;16.00;;;;;;;;6491198;39;8906;-64
2024/04/19 15:54:44;;;;;;;;;14.00;14.00;;;;;;;;6491317;39;9296;-65
2024/04/19 16:00:49;;;;;;;;;10.00;10.00;;;;;;;;6490958;31;9600;-64
2024/04/19 16:06:53;;;;;;;;;12.67;10.33;;;;;;;;6492219;31;8933;-64
2024/04/19 16:12:56;;;;;;;;;16.00;14.00;;;;;;;;6490959;39;9043;-63
2024/04/19 16:18:59;;;;;;;;;15.00;14.00;;;;;;;;6491512;46;8877;-62
2024/04/19 16:25:03;;;;;;;;;31.00;27.00;;;;;;;;6490667;46;9020;-66
2024/04/19 16:31:12;;;;;;;;;14.67;14.33;;;;;;;;6491118;46;8943;-65
2024/04/19 16:37:18;;;;;;;;;15.33;13.67;;;;;;;;6491088;39;8968;-67
2024/04/19 16:43:21;;;;;;;;;14.50;14.50;;;;;;;;6490437;39;8901;-67
2024/04/19 16:49:31;;;;;;;;;19.33;18.33;;;;;;;;6489824;39;9044;-67
2024/04/19 16:55:35;;;;;;;;;14.00;14.00;;;;;;;;6490748;46;9065;-65
2024/04/19 17:01:39;;;;;;;;;17.33;17.33;;;;;;;;6491827;39;8998;-66
2024/04/19 17:07:43;;;;;;;;;24.75;24.75;;;;;;;;6490498;39;8914;-66
2024/04/19 17:13:50;;;;;;;;;16.00;16.00;;;;;;;;6491774;39;8923;-65
2024/04/19 17:19:53;;;;;;;;;15.50;14.50;;;;;;;;6490140;46;9034;-67
2024/04/19 17:25:55;;;;;;;;;19.25;18.25;;;;;;;;6491240;39;9114;-65
2024/04/19 17:31:57;;;;;;;;;18.75;17.75;;;;;;;;6491114;39;8969;-66
2024/04/19 17:37:59;;;;;;;;;27.25;27.00;;;;;;;;6490093;39;9090;-64
2024/04/19 17:44:02;;;;;;;;;23.50;22.00;;;;;;;;6490948;31;9605;-65
2024/04/19 17:50:06;;;;;;;;;23.25;22.50;;;;;;;;6491505;39;8855;-65
2024/04/19 17:56:12;;;;;;;;;23.00;23.00;;;;;;;;6490007;46;9035;-66
2024/04/19 18:02:15;;;;;;;;;29.25;26.00;;;;;;;;6492071;39;9575;-64
2024/04/19 18:08:30;;;;;;;;;39.50;31.00;;;;;;;;6491085;46;8916;-64
2024/04/19 18:14:32;;;;;;;;;33.00;27.00;;;;;;;;6491486;39;8963;-65
2024/04/19 18:20:41;;;;;;;;;32.25;27.75;;;;;;;;6490795;39;9547;-66
2024/04/19 18:26:51;;;;;;;;;29.75;27.50;;;;;;;;6490546;39;8876;-65
2024/04/19 18:33:00;;;;;;;;;36.25;32.00;;;;;;;;6490605;39;8877;-66
2024/04/19 18:39:09;;;;;;;;;40.00;35.00;;;;;;;;6491419;39;8927;-66
2024/04/19 18:45:17;;;;;;;;;25.50;23.75;;;;;;;;6490522;47;8888;-66
2024/04/19 18:51:21;;;;;;;;;29.00;26.50;;;;;;;;6490898;39;8848;-66
2024/04/19 18:57:24;;;;;;;;;27.75;26.75;;;;;;;;6491608;39;8896;-66
2024/04/19 19:03:28;;;;;;;;;27.25;23.00;;;;;;;;6490795;39;8968;-65
2024/04/19 19:09:33;;;;;;;;;32.75;29.00;;;;;;;;6492588;39;8911;-66
2024/04/19 19:15:41;;;;;;;;;36.50;35.75;;;;;;;;6492503;46;8971;-66
2024/04/19 19:21:51;;;;;;;;;44.25;38.25;;;;;;;;6493172;39;9551;-65
2024/04/19 19:27:55;;;;;;;;;34.00;30.75;;;;;;;;6492868;39;8909;-65
2024/04/19 19:34:17;;;;;;;;;34.50;31.75;;;;;;;;6491947;46;8971;-65
2024/04/19 19:40:18;;;;;;;;;35.75;34.75;;;;;;;;6492805;39;8948;-65
2024/04/19 19:46:32;;;;;;;;;34.00;30.00;;;;;;;;6492445;39;9540;-65
2024/04/19 19:52:43;;;;;;;;;23.50;23.50;;;;;;;;6491390;46;8902;-64
2024/04/19 19:58:50;;;;;;;;;25.25;24.50;;;;;;;;6492347;39;9025;-66
2024/04/19 20:11:13;;;;;;;;;22.75;22.75;;;;;;;;6492517;39;8958;-65
2024/04/19 20:17:19;;;;;;;;;17.25;17.25;;;;;;;;6491196;46;8927;-65
2024/04/19 20:23:22;;;;;;;;;21.75;20.00;;;;;;;;6492762;39;9950;-65
2024/04/19 20:29:32;;;;;;;;;23.25;23.00;;;;;;;;6491576;46;8871;-63
2024/04/19 20:35:53;;;;;;;;;25.25;21.75;;;;;;;;6491263;39;9055;-65
2024/04/19 20:42:05;;;;;;;;;26.25;25.25;;;;;;;;6491966;39;8871;-66
2024/04/19 20:48:10;;;;;;;;;27.00;25.00;;;;;;;;6491266;39;8863;-66
2024/04/19 20:54:17;;;;;;;;;36.25;29.00;;;;;;;;6491434;46;8867;-65
2024/04/19 21:00:26;;;;;;;;;30.00;24.00;;;;;;;;6492403;39;8938;-64
2024/04/19 21:06:30;;;;;;;;;30.75;23.75;;;;;;;;6491619;39;8903;-65
2024/04/19 21:12:37;;;;;;;;;24.00;22.00;;;;;;;;6490791;46;9038;-64
2024/04/19 21:18:44;;;;;;;;;29.25;26.75;;;;;;;;6491397;39;8872;-66
2024/04/19 21:24:50;;;;;;;;;26.50;24.50;;;;;;;;6491260;39;8863;-64
2024/04/19 21:31:02;;;;;;;;;25.25;23.50;;;;;;;;6491936;39;8991;-65
2024/04/19 21:37:05;;;;;;;;;23.00;23.00;;;;;;;;6491535;39;9027;-64
2024/04/19 21:43:07;;;;;;;;;26.25;26.25;;;;;;;;6489826;46;8836;-65
2024/04/19 21:49:11;;;;;;;;;27.75;27.75;;;;;;;;6491386;46;8879;-65
2024/04/19 21:55:17;;;;;;;;;28.75;27.00;;;;;;;;6491277;31;8920;-64
2024/04/19 22:01:25;;;;;;;;;29.25;25.00;;;;;;;;6490859;39;9066;-64
2024/04/19 22:07:30;;;;;;;;;31.00;27.25;;;;;;;;6490936;46;8980;-66
2024/04/19 22:13:38;;;;;;;;;24.00;24.00;;;;;;;;6490799;39;9039;-65
2024/04/19 22:19:51;;;;;;;;;25.50;24.00;;;;;;;;6489671;46;8878;-65
2024/04/19 22:25:57;;;;;;;;;23.25;22.75;;;;;;;;6490650;39;9497;-65
2024/04/19 22:32:08;;;;;;;;;26.67;20.67;;;;;;;;6490430;46;8888;-64
2024/04/19 22:38:11;;;;;;;;;26.25;22.00;;;;;;;;6491469;31;9000;-65
2024/04/19 22:44:22;;;;;;;;;27.75;23.50;;;;;;;;6489344;39;8921;-64
2024/04/19 22:50:25;;;;;;;;;27.25;25.25;;;;;;;;6489913;39;8870;-63
2024/04/19 22:56:28;;;;;;;;;27.25;25.50;;;;;;;;6490269;39;8965;-65
2024/04/19 23:02:32;;;;;;;;;23.00;23.00;;;;;;;;6490347;39;9040;-65
2024/04/19 23:08:42;;;;;;;;;28.25;23.50;;;;;;;;6490588;39;9623;-65
2024/04/19 23:14:49;;;;;;;;;26.50;23.50;;;;;;;;6490547;39;8901;-64
2024/04/19 23:21:00;;;;;;;;;30.50;28.25;;;;;;;;6490673;39;8913;-64
2024/04/19 23:27:07;;;;;;;;;31.25;29.25;;;;;;;;6489842;39;9513;-65
2024/04/19 23:33:09;;;;;;;;;32.50;29.00;;;;;;;;6490225;39;8890;-65
2024/04/19 23:39:16;;;;;;;;;25.50;21.50;;;;;;;;6490241;39;8845;-65
2024/04/19 23:45:17;;;;;;;;;21.75;21.75;;;;;;;;6488977;47;8998;-65
2024/04/19 23:51:22;;;;;;;;;28.50;24.25;;;;;;;;6492523;39;9453;-64
2024/04/19 23:57:26;;;;;;;;;29.50;27.25;;;;;;;;6492194;46;8873;-65
